Time;durP1;ratioP1;P1;durP2;ratioP2;P2;SDS_P1;SDS_P2;PMS_P1;PMS_P2;Temp;Humidity;BMP_temperature;BMP_pressure;BME280_temperature;BME280_humidity;BME280_pressure;Samples;Min_cycle;Max_cycle;Signal;HPM_P1;HPM_P2
2023/07/13 00:00:28;;;;;;;3.63;3.43;;;19.60;59.30;;;;;;6242563;28;20251;-83
2023/07/13 00:03:34;;;;;;;3.90;3.60;;;19.60;59.50;;;;;;6256422;28;20238;-82
2023/07/13 00:06:38;;;;;;;4.73;4.27;;;19.70;59.40;;;;;;6258636;28;20249;-82
2023/07/13 00:09:41;;;;;;;4.50;4.17;;;19.70;59.30;;;;;;6265980;28;20800;-83
2023/07/13 00:12:45;;;;;;;4.63;4.23;;;19.60;59.40;;;;;;6268983;28;20749;-82
2023/07/13 00:15:49;;;;;;;4.00;3.70;;;19.50;59.40;;;;;;6258482;28;20438;-83
2023/07/13 00:18:53;;;;;;;4.63;4.23;;;19.50;59.40;;;;;;6269527;28;20695;-82
2023/07/13 00:21:56;;;;;;;4.93;3.73;;;19.50;59.40;;;;;;6274803;28;20237;-83
2023/07/13 00:24:59;;;;;;;6.50;3.57;;;19.50;59.50;;;;;;6275512;28;20376;-82
2023/07/13 00:28:03;;;;;;;4.87;4.00;;;19.40;59.60;;;;;;6261159;28;20292;-82
2023/07/13 00:31:07;;;;;;;3.60;3.40;;;19.40;59.60;;;;;;6260674;28;20236;-82
2023/07/13 00:34:13;;;;;;;3.70;3.40;;;19.40;59.60;;;;;;6279304;28;20242;-84
2023/07/13 00:37:16;;;;;;;3.50;3.20;;;19.30;59.60;;;;;;6285037;28;20284;-82
2023/07/13 00:40:19;;;;;;;3.00;2.90;;;19.40;59.70;;;;;;6271317;28;20584;-83
2023/07/13 00:43:24;;;;;;;4.10;3.47;;;19.30;59.60;;;;;;6269842;28;20733;-83
2023/07/13 00:46:30;;;;;;;4.47;3.37;;;19.30;59.60;;;;;;6278175;28;20295;-83
2023/07/13 00:49:37;;;;;;;3.53;3.23;;;19.20;59.50;;;;;;6263009;28;20260;-81
2023/07/13 00:52:45;;;;;;;3.00;3.00;;;19.20;59.60;;;;;;6272855;28;20294;-81
2023/07/13 00:55:49;;;;;;;2.70;2.70;;;19.10;59.70;;;;;;6265498;28;20253;-82
2023/07/13 00:58:54;;;;;;;2.90;2.80;;;19.10;59.80;;;;;;6271233;28;20242;-83
2023/07/13 01:01:57;;;;;;;3.33;3.13;;;19.00;59.90;;;;;;6258552;28;20234;-82
2023/07/13 01:05:02;;;;;;;3.23;3.03;;;19.00;60.00;;;;;;6270228;28;20230;-82
2023/07/13 01:08:06;;;;;;;3.00;2.90;;;18.90;60.20;;;;;;6270850;28;20236;-82
2023/07/13 01:11:09;;;;;;;3.00;2.90;;;18.80;60.50;;;;;;6270934;28;20282;-83
2023/07/13 01:14:12;;;;;;;3.47;3.37;;;18.80;60.80;;;;;;6304386;28;20229;-81
2023/07/13 01:17:16;;;;;;;2.63;2.60;;;18.70;61.00;;;;;;6273187;28;20238;-81
2023/07/13 01:20:21;;;;;;;2.90;2.80;;;18.70;61.10;;;;;;6280321;28;20288;-83
2023/07/13 01:23:26;;;;;;;3.30;3.10;;;18.60;61.20;;;;;;6297544;28;20233;-82
2023/07/13 01:26:29;;;;;;;3.27;3.10;;;18.50;61.60;;;;;;6280379;28;20242;-82
2023/07/13 01:29:34;;;;;;;3.47;3.10;;;18.40;61.70;;;;;;6288184;28;20244;-83
2023/07/13 01:32:37;;;;;;;2.90;2.80;;;18.40;61.90;;;;;;6283192;28;20729;-80
2023/07/13 01:35:41;;;;;;;2.80;2.70;;;18.40;62.00;;;;;;6296094;28;20318;-80
2023/07/13 01:38:45;;;;;;;3.03;2.83;;;18.30;62.10;;;;;;6289990;28;20396;-82
2023/07/13 01:41:50;;;;;;;2.90;2.80;;;18.30;62.00;;;;;;6267157;28;20238;-82
2023/07/13 01:44:53;;;;;;;2.63;2.53;;;18.30;62.20;;;;;;6279101;28;20238;-81
2023/07/13 01:47:56;;;;;;;3.00;2.90;;;18.20;62.20;;;;;;6259830;28;20257;-80
2023/07/13 01:50:59;;;;;;;2.60;2.60;;;18.20;62.20;;;;;;6270930;28;20904;-82
2023/07/13 01:54:04;;;;;;;2.93;2.77;;;18.10;62.30;;;;;;6271457;28;20316;-82
2023/07/13 01:57:07;;;;;;;3.03;2.93;;;18.10;62.40;;;;;;6273423;28;20313;-82
2023/07/13 02:00:14;;;;;;;3.03;2.83;;;18.00;62.60;;;;;;6269960;28;20268;-80
2023/07/13 02:03:18;;;;;;;6.73;4.00;;;18.00;62.90;;;;;;6272158;28;20261;-82
2023/07/13 02:06:21;;;;;;;3.23;3.13;;;18.00;63.60;;;;;;6266650;28;20236;-83
2023/07/13 02:09:26;;;;;;;3.90;3.70;;;18.00;63.40;;;;;;6274480;28;20241;-81
2023/07/13 02:12:29;;;;;;;4.13;3.40;;;18.00;63.70;;;;;;6270490;28;20257;-82
2023/07/13 02:15:34;;;;;;;3.07;2.97;;;18.00;63.80;;;;;;6268780;28;20320;-81
2023/07/13 02:18:37;;;;;;;3.50;3.40;;;18.00;63.70;;;;;;6257199;28;20237;-80
2023/07/13 02:21:40;;;;;;;3.60;3.30;;;18.00;63.70;;;;;;6240624;28;20998;-82
2023/07/13 02:24:44;;;;;;;3.40;3.30;;;18.10;63.80;;;;;;6252866;28;20321;-83
2023/07/13 02:27:47;;;;;;;4.03;3.77;;;18.10;63.80;;;;;;6258605;28;20844;-82
2023/07/13 02:30:50;;;;;;;3.40;3.20;;;18.10;63.90;;;;;;6262861;28;20754;-82
2023/07/13 02:33:56;;;;;;;3.30;3.10;;;18.10;63.70;;;;;;6262371;28;20273;-80
2023/07/13 02:36:59;;;;;;;3.63;3.50;;;18.10;63.30;;;;;;6253198;28;20242;-81
2023/07/13 02:40:08;;;;;;;3.77;3.47;;;18.10;63.20;;;;;;6255620;28;20229;-82
2023/07/13 02:43:11;;;;;;;3.40;3.20;;;18.00;63.00;;;;;;6270844;28;20258;-80
2023/07/13 02:46:14;;;;;;;3.40;3.27;;;18.00;63.10;;;;;;6258647;28;20257;-82
2023/07/13 02:49:19;;;;;;;3.17;3.00;;;18.00;63.40;;;;;;6261250;28;20229;-83
2023/07/13 02:52:22;;;;;;;3.23;3.13;;;17.90;63.60;;;;;;6268819;28;20240;-82
2023/07/13 02:55:27;;;;;;;3.70;3.43;;;17.90;63.70;;;;;;6267842;28;20241;-82
2023/07/13 02:58:30;;;;;;;3.47;3.30;;;17.80;64.00;;;;;;6282105;28;20794;-83
2023/07/13 03:01:35;;;;;;;3.37;3.20;;;17.80;64.20;;;;;;6282684;28;20253;-82
2023/07/13 03:04:38;;;;;;;4.80;4.03;;;17.80;64.30;;;;;;6257364;28;20333;-83
2023/07/13 03:07:42;;;;;;;4.67;4.20;;;17.80;64.70;;;;;;6256986;28;20246;-83
2023/07/13 03:10:46;;;;;;;4.60;4.20;;;17.80;64.70;;;;;;6276248;28;20316;-83
2023/07/13 03:13:49;;;;;;;4.70;4.33;;;17.80;64.70;;;;;;6272952;28;20241;-80
2023/07/13 03:16:53;;;;;;;4.27;3.97;;;17.80;64.60;;;;;;6272873;28;20678;-82
2023/07/13 03:19:56;;;;;;;4.13;3.90;;;17.80;64.40;;;;;;6254477;28;20238;-82
2023/07/13 03:23:00;;;;;;;3.63;3.43;;;17.80;64.20;;;;;;6280985;28;20247;-81
2023/07/13 03:26:07;;;;;;;4.80;4.40;;;17.80;64.10;;;;;;6283190;28;20261;-83
2023/07/13 03:29:10;;;;;;;3.70;3.60;;;17.80;64.30;;;;;;6253025;28;20936;-80
2023/07/13 03:32:13;;;;;;;3.90;3.60;;;17.80;64.40;;;;;;6252385;28;20236;-83
2023/07/13 03:35:16;;;;;;;4.13;3.83;;;17.90;64.20;;;;;;6269678;28;20240;-79
2023/07/13 03:38:20;;;;;;;4.23;3.90;;;18.00;64.00;;;;;;6249449;28;20768;-77
2023/07/13 03:41:25;;;;;;;3.80;3.50;;;18.00;64.00;;;;;;6259794;28;20252;-77
2023/07/13 03:44:28;;;;;;;3.53;3.33;;;18.10;64.00;;;;;;6264957;28;20254;-81
2023/07/13 03:47:31;;;;;;;3.60;3.43;;;18.10;63.80;;;;;;6257520;28;20233;-79
2023/07/13 03:50:35;;;;;;;4.93;3.73;;;18.20;63.60;;;;;;6265405;28;20222;-76
2023/07/13 03:53:40;;;;;;;3.90;3.63;;;18.20;63.60;;;;;;6264284;28;20613;-76
2023/07/13 03:56:45;;;;;;;5.73;3.70;;;18.30;63.70;;;;;;6268708;28;20233;-78
2023/07/13 03:59:48;;;;;;;3.77;3.67;;;18.30;63.60;;;;;;6270642;28;20234;-74
2023/07/13 04:02:51;;;;;;;3.80;3.50;;;18.30;63.40;;;;;;6254056;28;20250;-78
2023/07/13 04:05:59;;;;;;;4.00;3.70;;;18.30;63.50;;;;;;6255293;28;20242;-75
2023/07/13 04:09:05;;;;;;;3.83;3.37;;;18.30;63.40;;;;;;6265070;28;20234;-76
2023/07/13 04:12:10;;;;;;;3.60;3.30;;;18.30;63.40;;;;;;6267731;28;20241;-77
2023/07/13 04:15:13;;;;;;;3.43;3.33;;;18.30;63.20;;;;;;6279649;28;20229;-77
2023/07/13 04:18:16;;;;;;;3.63;3.43;;;18.30;63.20;;;;;;6284239;28;20349;-79
2023/07/13 04:21:20;;;;;;;3.40;3.20;;;18.30;63.30;;;;;;6280016;28;20344;-79
2023/07/13 04:24:23;;;;;;;3.10;3.00;;;18.30;63.30;;;;;;6291540;28;20312;-78
2023/07/13 04:27:28;;;;;;;3.60;3.40;;;18.30;63.30;;;;;;6281223;28;20276;-77
2023/07/13 04:30:31;;;;;;;3.23;3.13;;;18.30;63.60;;;;;;6276873;28;20244;-76
2023/07/13 04:33:35;;;;;;;4.07;3.63;;;18.30;63.60;;;;;;6275877;28;20260;-78
2023/07/13 04:36:38;;;;;;;3.37;3.17;;;18.30;63.50;;;;;;6273456;28;20716;-79
2023/07/13 04:39:41;;;;;;;3.30;3.10;;;18.40;63.50;;;;;;6295039;28;20717;-77
2023/07/13 04:42:46;;;;;;;3.20;3.00;;;18.40;63.40;;;;;;6290643;28;20320;-77
2023/07/13 04:45:49;;;;;;;3.77;3.47;;;18.40;63.40;;;;;;6278480;28;20324;-74
2023/07/13 04:48:53;;;;;;;2.90;2.73;;;18.40;63.40;;;;;;6284779;28;20234;-79
2023/07/13 04:51:56;;;;;;;3.37;3.20;;;18.50;63.20;;;;;;6283933;28;20308;-78
2023/07/13 04:55:01;;;;;;;3.70;3.50;;;18.60;63.20;;;;;;6285636;28;20234;-77
2023/07/13 04:58:06;;;;;;;3.60;3.30;;;18.70;63.10;;;;;;6279411;28;20311;-79
2023/07/13 05:01:10;;;;;;;3.90;3.57;;;18.70;63.20;;;;;;6306179;28;20678;-80
2023/07/13 05:04:14;;;;;;;3.23;3.00;;;18.90;63.10;;;;;;6292016;28;20241;-82
2023/07/13 05:07:17;;;;;;;3.80;3.50;;;19.00;62.90;;;;;;6283884;28;20277;-81
2023/07/13 05:10:20;;;;;;;3.57;3.37;;;19.20;62.50;;;;;;6244614;28;20226;-79
2023/07/13 05:13:25;;;;;;;5.20;3.50;;;19.40;61.90;;;;;;6267422;28;20233;-81
2023/07/13 05:16:32;;;;;;;3.60;3.30;;;19.30;61.80;;;;;;6259202;28;20234;-80
2023/07/13 05:19:36;;;;;;;3.07;2.97;;;19.40;61.90;;;;;;6255142;28;20229;-78
2023/07/13 05:22:39;;;;;;;5.00;3.27;;;19.80;61.50;;;;;;6267500;28;20231;-83
2023/07/13 05:25:42;;;;;;;5.13;3.60;;;20.00;60.90;;;;;;6267467;28;20252;-82
2023/07/13 05:28:47;;;;;;;4.83;3.50;;;20.30;60.10;;;;;;6250605;28;20340;-81
2023/07/13 05:31:51;;;;;;;2.97;2.77;;;20.30;59.70;;;;;;6252767;28;20231;-80
2023/07/13 05:34:54;;;;;;;3.07;2.77;;;20.60;59.40;;;;;;6262142;28;20242;-80
2023/07/13 05:37:57;;;;;;;3.60;3.30;;;20.90;59.20;;;;;;6268594;28;20230;-81
2023/07/13 05:41:01;;;;;;;3.73;3.30;;;21.10;58.50;;;;;;6258457;28;20238;-83
2023/07/13 05:44:09;;;;;;;5.20;3.13;;;21.30;58.10;;;;;;6260681;28;20767;-81
2023/07/13 05:47:14;;;;;;;3.10;2.90;;;21.40;57.90;;;;;;6244659;28;20746;-83
2023/07/13 05:50:17;;;;;;;3.40;3.20;;;21.50;57.10;;;;;;6255571;28;20710;-82
2023/07/13 05:53:20;;;;;;;3.03;2.83;;;21.70;57.40;;;;;;6263563;28;20299;-83
2023/07/13 05:56:25;;;;;;;3.93;3.23;;;21.70;57.30;;;;;;6264005;28;20238;-80
2023/07/13 05:59:32;;;;;;;4.10;3.77;;;21.80;57.20;;;;;;6267579;28;20744;-84
2023/07/13 06:02:35;;;;;;;4.10;3.80;;;21.70;57.30;;;;;;6256340;28;20625;-83
2023/07/13 06:05:39;;;;;;;4.30;3.90;;;21.90;57.00;;;;;;6255580;28;20708;-83
2023/07/13 06:08:43;;;;;;;4.20;3.40;;;21.50;57.50;;;;;;6266908;28;20312;-83
2023/07/13 06:11:46;;;;;;;3.90;3.60;;;21.80;57.40;;;;;;6266335;28;20901;-82
2023/07/13 06:14:50;;;;;;;4.40;4.00;;;22.10;57.00;;;;;;6255070;28;20365;-80
2023/07/13 06:17:53;;;;;;;4.90;4.00;;;22.60;55.70;;;;;;6285173;28;20245;-82
2023/07/13 06:20:57;;;;;;;4.07;3.67;;;22.70;55.20;;;;;;6272215;28;20808;-80
2023/07/13 06:24:00;;;;;;;4.77;3.73;;;22.60;56.10;;;;;;6263903;28;20822;-81
2023/07/13 06:27:03;;;;;;;5.60;3.57;;;22.50;55.80;;;;;;6276054;28;20324;-82
2023/07/13 06:30:09;;;;;;;3.73;3.53;;;23.10;55.60;;;;;;6259079;28;20726;-81
2023/07/13 06:33:12;;;;;;;4.03;3.63;;;23.40;54.70;;;;;;6274960;28;20234;-81
2023/07/13 06:36:16;;;;;;;4.17;3.77;;;23.40;54.00;;;;;;6256049;28;20227;-81
2023/07/13 06:39:19;;;;;;;4.37;4.07;;;23.20;54.30;;;;;;6277152;28;20233;-81
2023/07/13 06:42:22;;;;;;;4.27;3.97;;;23.30;54.50;;;;;;6254521;28;20261;-81
2023/07/13 06:45:27;;;;;;;4.20;3.03;;;23.20;55.00;;;;;;6263350;28;20234;-82
2023/07/13 06:48:30;;;;;;;5.97;3.60;;;23.60;54.00;;;;;;6252342;28;20242;-82
2023/07/13 06:51:33;;;;;;;5.70;3.40;;;23.70;53.50;;;;;;6262778;28;20769;-80
2023/07/13 06:54:36;;;;;;;3.03;2.83;;;23.60;53.80;;;;;;6265535;28;21058;-81
2023/07/13 06:57:39;;;;;;;5.60;3.70;;;23.60;53.70;;;;;;6271797;28;20238;-81
2023/07/13 07:00:44;;;;;;;7.30;3.67;;;24.20;52.90;;;;;;6274208;28;20238;-85
2023/07/13 07:03:48;;;;;;;3.53;3.10;;;24.50;52.00;;;;;;6291289;28;20240;-79
2023/07/13 07:06:51;;;;;;;3.60;3.30;;;25.00;51.60;;;;;;6275301;28;20249;-79
2023/07/13 07:09:54;;;;;;;3.50;3.17;;;24.80;51.80;;;;;;6270953;28;20659;-83
2023/07/13 07:12:57;;;;;;;3.50;3.20;;;25.10;50.90;;;;;;6269011;28;20332;-81
2023/07/13 07:16:02;;;;;;;2.87;2.67;;;25.20;50.50;;;;;;6273281;28;20251;-80
2023/07/13 07:19:05;;;;;;;3.97;3.23;;;25.30;49.80;;;;;;6277559;28;20243;-82
2023/07/13 07:22:09;;;;;;;2.43;2.43;;;24.90;51.00;;;;;;6259498;28;20292;-80
2023/07/13 07:25:12;;;;;;;2.80;2.70;;;24.70;52.40;;;;;;6252967;28;20617;-82
2023/07/13 07:28:18;;;;;;;5.40;2.97;;;24.60;51.90;;;;;;6249551;28;20249;-82
2023/07/13 07:31:25;;;;;;;3.23;2.83;;;24.40;50.80;;;;;;6250071;28;20241;-82
2023/07/13 07:34:32;;;;;;;2.87;2.70;;;24.10;51.20;;;;;;6233928;28;20233;-82
2023/07/13 07:37:37;;;;;;;5.87;2.17;;;23.80;52.20;;;;;;6267434;28;20226;-81
2023/07/13 07:40:44;;;;;;;2.40;2.23;;;23.80;52.70;;;;;;6276864;28;20233;-84
2023/07/13 07:43:50;;;;;;;2.43;2.33;;;23.90;52.00;;;;;;6297977;28;20267;-82
2023/07/13 07:46:55;;;;;;;2.70;2.50;;;24.20;51.40;;;;;;6278745;28;20308;-83
2023/07/13 07:49:58;;;;;;;2.37;2.27;;;24.30;51.40;;;;;;6279242;28;20245;-79
2023/07/13 07:53:02;;;;;;;6.90;2.63;;;24.40;51.00;;;;;;6272987;28;20242;-75
2023/07/13 07:56:05;;;;;;;2.27;2.07;;;24.20;51.10;;;;;;6274808;28;20296;-77
2023/07/13 07:59:28;;;;;;;2.20;2.10;;;23.90;51.70;;;;;;6283132;28;20636;-78
2023/07/13 08:02:53;;;;;;;3.37;2.03;;;24.10;51.90;;;;;;6275307;28;20250;-78
2023/07/13 08:05:59;;;;;;;2.57;2.10;;;23.70;51.50;;;;;;6286055;28;20243;-78
2023/07/13 08:09:22;;;;;;;2.20;2.20;;;23.60;51.90;;;;;;6280775;28;20260;-77
2023/07/13 08:12:25;;;;;;;3.30;2.30;;;23.20;52.50;;;;;;6285947;28;20844;-78
2023/07/13 08:15:31;;;;;;;2.50;2.40;;;23.30;52.50;;;;;;6280886;28;20331;-78
2023/07/13 08:18:36;;;;;;;3.10;2.60;;;23.60;52.10;;;;;;6293191;28;20225;-77
2023/07/13 08:21:39;;;;;;;3.00;2.30;;;23.70;51.80;;;;;;6278703;28;20233;-76
2023/07/13 08:24:43;;;;;;;2.80;2.50;;;23.70;50.90;;;;;;6285399;28;20368;-79
2023/07/13 08:27:46;;;;;;;2.03;2.00;;;23.60;50.90;;;;;;6287737;28;20231;-78
2023/07/13 08:30:49;;;;;;;2.60;2.50;;;23.30;52.00;;;;;;6291774;28;20248;-78
2023/07/13 08:33:54;;;;;;;3.50;2.53;;;23.40;51.90;;;;;;6291432;28;20238;-78
2023/07/13 08:36:57;;;;;;;2.50;2.13;;;23.50;51.10;;;;;;6291195;28;20229;-79
2023/07/13 08:40:00;;;;;;;2.37;2.27;;;23.60;51.10;;;;;;6278119;28;20249;-78
2023/07/13 08:43:03;;;;;;;3.00;2.53;;;23.60;51.00;;;;;;6287989;28;20244;-78
2023/07/13 08:46:12;;;;;;;2.60;2.50;;;23.30;51.50;;;;;;6277158;28;20237;-78
2023/07/13 08:49:23;;;;;;;4.40;2.60;;;22.60;53.40;;;;;;6286154;28;20233;-77
2023/07/13 08:52:34;;;;;;;3.20;2.90;;;22.50;53.50;;;;;;6271153;28;20235;-80
2023/07/13 08:55:39;;;;;;;2.60;2.40;;;22.70;53.10;;;;;;6258832;28;20241;-79
2023/07/13 08:58:42;;;;;;;5.80;2.50;;;22.30;53.30;;;;;;6257111;28;20248;-78
2023/07/13 09:02:01;;;;;;;2.87;2.40;;;22.40;53.60;;;;;;6254948;28;20316;-78
2023/07/13 09:05:13;;;;;;;2.87;2.30;;;22.50;53.40;;;;;;6255528;28;20817;-78
2023/07/13 09:08:33;;;;;;;2.30;2.10;;;22.70;53.00;;;;;;6256058;28;20242;-76
2023/07/13 09:11:50;;;;;;;4.23;2.03;;;23.00;52.10;;;;;;6251490;28;20313;-76
2023/07/13 09:14:56;;;;;;;2.43;2.23;;;23.20;52.10;;;;;;6245339;28;20235;-78
2023/07/13 09:18:05;;;;;;;3.43;2.80;;;23.20;51.60;;;;;;6252342;28;20829;-76
2023/07/13 09:21:16;;;;;;;2.73;2.53;;;23.30;51.70;;;;;;6253438;28;20262;-76
2023/07/13 09:24:30;;;;;;;2.63;2.43;;;23.20;50.80;;;;;;6258138;28;20242;-76
2023/07/13 09:27:40;;;;;;;2.33;2.23;;;23.20;51.40;;;;;;6265301;28;20234;-75
2023/07/13 09:30:51;;;;;;;2.20;2.10;;;23.20;51.10;;;;;;6266841;28;20237;-78
2023/07/13 09:33:54;;;;;;;3.07;2.10;;;23.20;50.70;;;;;;6276904;28;20709;-78
2023/07/13 09:36:59;;;;;;;5.70;3.13;;;23.60;50.80;;;;;;6251256;28;20281;-77
2023/07/13 09:40:05;;;;;;;3.03;2.33;;;23.80;51.10;;;;;;6269212;28;20249;-76
2023/07/13 09:43:14;;;;;;;5.63;2.50;;;24.20;50.50;;;;;;6254282;28;20230;-78
2023/07/13 09:46:22;;;;;;;2.93;2.73;;;24.20;48.50;;;;;;6250870;28;20249;-78
2023/07/13 09:49:27;;;;;;;3.73;2.90;;;24.10;47.90;;;;;;6260365;28;20249;-77
2023/07/13 09:52:42;;;;;;;3.10;2.90;;;24.20;47.50;;;;;;6257458;28;20317;-78
2023/07/13 09:55:47;;;;;;;3.40;3.20;;;24.30;48.70;;;;;;6270014;28;20318;-79
2023/07/13 09:58:57;;;;;;;3.80;3.60;;;24.50;47.20;;;;;;6264656;28;20320;-75
2023/07/13 10:02:01;;;;;;;4.10;3.90;;;24.30;46.90;;;;;;6269371;28;20242;-75
2023/07/13 10:05:08;;;;;;;4.50;3.83;;;24.20;47.20;;;;;;6260856;28;20721;-77
2023/07/13 10:08:36;;;;;;;4.00;3.90;;;24.20;47.40;;;;;;6267457;28;20230;-78
2023/07/13 10:11:41;;;;;;;5.50;3.80;;;24.10;47.30;;;;;;6243919;28;20229;-75
2023/07/13 10:14:44;;;;;;;5.70;3.70;;;23.50;48.70;;;;;;6277203;28;20303;-77
2023/07/13 10:17:48;;;;;;;5.40;4.10;;;23.60;49.00;;;;;;6276507;28;20295;-74
2023/07/13 10:20:55;;;;;;;4.50;3.97;;;23.90;48.80;;;;;;6255125;28;20257;-78
2023/07/13 10:24:21;;;;;;;4.90;4.50;;;24.20;49.40;;;;;;6264973;28;20272;-76
2023/07/13 10:27:33;;;;;;;4.57;4.27;;;24.50;48.00;;;;;;6256533;28;20242;-77
2023/07/13 10:30:41;;;;;;;5.27;3.97;;;24.50;47.90;;;;;;6265545;28;20380;-77
2023/07/13 10:33:44;;;;;;;3.07;2.93;;;24.60;47.90;;;;;;6264521;28;20230;-75
2023/07/13 10:36:49;;;;;;;3.60;3.30;;;24.20;47.40;;;;;;6263110;28;20258;-78
2023/07/13 10:39:56;;;;;;;3.80;3.60;;;24.00;47.60;;;;;;6262562;28;20237;-76
2023/07/13 10:43:05;;;;;;;7.07;3.83;;;23.90;47.50;;;;;;6262423;28;20629;-79
2023/07/13 10:46:12;;;;;;;3.00;2.90;;;24.00;47.50;;;;;;6260915;28;20243;-77
2023/07/13 10:49:16;;;;;;;3.13;2.93;;;23.80;47.60;;;;;;6266504;28;20264;-76
2023/07/13 10:52:42;;;;;;;3.27;3.13;;;24.00;47.60;;;;;;6248608;28;20247;-77
2023/07/13 10:55:59;;;;;;;3.80;3.47;;;24.10;49.10;;;;;;6256253;28;20238;-77
2023/07/13 10:59:14;;;;;;;3.43;3.07;;;24.50;47.30;;;;;;6259829;28;20242;-80
2023/07/13 11:02:27;;;;;;;4.03;3.57;;;24.70;46.80;;;;;;6259091;28;20614;-81
2023/07/13 11:05:34;;;;;;;3.90;3.60;;;25.00;45.70;;;;;;6261493;28;20237;-81
2023/07/13 11:08:39;;;;;;;7.13;3.93;;;25.30;46.50;;;;;;6268389;28;20287;-82
2023/07/13 11:11:44;;;;;;;4.23;3.83;;;25.40;45.70;;;;;;6271908;28;20344;-81
2023/07/13 11:15:06;;;;;;;4.30;3.80;;;25.40;44.40;;;;;;6254981;28;20334;-81
2023/07/13 11:18:24;;;;;;;3.20;3.00;;;25.20;44.30;;;;;;6248171;28;20235;-80
2023/07/13 11:21:30;;;;;;;3.20;3.10;;;25.00;45.30;;;;;;6249543;28;20881;-82
2023/07/13 11:24:51;;;;;;;4.07;3.63;;;25.20;45.00;;;;;;6251391;28;20238;-81
2023/07/13 11:28:16;;;;;;;3.00;2.90;;;25.10;44.70;;;;;;6270945;28;20230;-79
2023/07/13 11:31:22;;;;;;;4.30;3.60;;;25.30;44.60;;;;;;6256508;28;20483;-80
2023/07/13 11:34:31;;;;;;;3.93;3.37;;;25.40;44.00;;;;;;6256810;28;20299;-82
2023/07/13 11:37:34;;;;;;;3.77;3.57;;;25.60;44.90;;;;;;6263466;28;20239;-79
2023/07/13 11:40:37;;;;;;;3.90;3.00;;;25.60;44.50;;;;;;6261793;28;20226;-83
2023/07/13 11:43:44;;;;;;;5.63;3.67;;;25.50;44.80;;;;;;6259954;28;21028;-80
2023/07/13 11:46:51;;;;;;;4.30;3.33;;;25.60;44.80;;;;;;6267467;28;20250;-80
2023/07/13 11:49:57;;;;;;;5.07;3.30;;;25.30;44.90;;;;;;6280310;28;20234;-79
2023/07/13 11:53:01;;;;;;;3.93;3.63;;;25.20;45.20;;;;;;6260487;28;20855;-84
2023/07/13 11:56:04;;;;;;;3.93;3.53;;;25.20;45.50;;;;;;6252606;28;20611;-82
2023/07/13 11:59:15;;;;;;;5.37;3.33;;;24.90;45.80;;;;;;6259454;28;20234;-81
2023/07/13 12:02:26;;;;;;;3.90;3.20;;;25.00;45.30;;;;;;6270210;28;20260;-84
2023/07/13 12:05:31;;;;;;;3.03;2.83;;;25.10;44.00;;;;;;6252618;28;20239;-75
2023/07/13 12:08:40;;;;;;;3.10;2.90;;;25.20;43.60;;;;;;6267191;28;20231;-75
2023/07/13 12:11:44;;;;;;;4.33;3.07;;;25.00;44.50;;;;;;6267435;28;20234;-82
2023/07/13 12:14:52;;;;;;;3.30;3.00;;;25.20;44.30;;;;;;6286293;28;20236;-84
2023/07/13 12:17:56;;;;;;;3.97;3.20;;;25.30;45.00;;;;;;6267921;28;20262;-83
2023/07/13 12:21:00;;;;;;;4.00;3.50;;;25.50;44.60;;;;;;6283081;28;20248;-83
2023/07/13 12:24:05;;;;;;;3.57;3.37;;;25.80;44.40;;;;;;6261154;28;20301;-83
2023/07/13 12:27:22;;;;;;;4.07;3.70;;;25.90;44.40;;;;;;6273738;28;20286;-82
2023/07/13 12:30:30;;;;;;;3.60;3.30;;;25.90;44.50;;;;;;6257449;28;20241;-81
2023/07/13 12:33:37;;;;;;;3.10;3.00;;;25.80;44.80;;;;;;6277113;28;20256;-81
2023/07/13 12:36:49;;;;;;;2.90;2.80;;;25.80;44.50;;;;;;6266508;28;20244;-81
2023/07/13 12:39:53;;;;;;;3.43;2.97;;;25.90;43.60;;;;;;6269035;28;20235;-79
2023/07/13 12:42:56;;;;;;;2.90;2.80;;;25.60;43.90;;;;;;6267966;28;20391;-83
2023/07/13 12:46:04;;;;;;;3.37;3.13;;;25.80;43.10;;;;;;6258654;28;20833;-77
2023/07/13 12:49:09;;;;;;;3.57;3.37;;;25.50;44.50;;;;;;6265605;28;20269;-80
2023/07/13 12:52:24;;;;;;;3.13;2.90;;;25.40;44.60;;;;;;6260780;28;20257;-80
2023/07/13 12:55:32;;;;;;;3.20;3.00;;;25.50;44.30;;;;;;6244971;28;20242;-82
2023/07/13 12:58:39;;;;;;;4.77;2.80;;;25.90;44.30;;;;;;6266431;28;20227;-81
2023/07/13 13:01:43;;;;;;;3.33;3.00;;;25.70;43.30;;;;;;6258587;28;20242;-83
2023/07/13 13:04:49;;;;;;;3.03;2.40;;;25.60;44.40;;;;;;6262988;28;20269;-83
2023/07/13 13:07:52;;;;;;;3.10;2.90;;;26.00;44.00;;;;;;6279786;28;20234;-81
2023/07/13 13:10:55;;;;;;;2.80;2.70;;;26.00;43.10;;;;;;6253305;28;20244;-80
2023/07/13 13:13:58;;;;;;;2.77;2.60;;;25.60;43.60;;;;;;6250773;28;20880;-80
2023/07/13 13:17:03;;;;;;;3.00;2.90;;;25.60;43.90;;;;;;6252867;28;20237;-82
2023/07/13 13:20:16;;;;;;;2.73;2.53;;;25.50;44.10;;;;;;6263468;28;20252;-76
2023/07/13 13:23:22;;;;;;;3.00;2.70;;;25.40;44.50;;;;;;6261587;28;20258;-75
2023/07/13 13:26:26;;;;;;;2.80;2.53;;;25.50;44.30;;;;;;6258636;28;20318;-76
2023/07/13 13:29:32;;;;;;;2.40;2.40;;;25.60;43.70;;;;;;6262277;28;20305;-78
2023/07/13 13:32:37;;;;;;;3.20;2.83;;;25.60;44.10;;;;;;6248409;28;20238;-77
2023/07/13 13:35:41;;;;;;;3.53;3.03;;;25.60;44.50;;;;;;6259215;28;20878;-76
2023/07/13 13:38:44;;;;;;;2.87;2.57;;;25.20;45.00;;;;;;6243643;28;20806;-77
2023/07/13 13:41:48;;;;;;;2.40;2.30;;;25.40;44.60;;;;;;6252546;28;20950;-75
2023/07/13 13:44:52;;;;;;;2.83;2.40;;;25.50;44.50;;;;;;6265910;28;20288;-76
2023/07/13 13:47:56;;;;;;;2.70;2.20;;;25.70;43.90;;;;;;6256929;28;20233;-76
2023/07/13 13:51:01;;;;;;;2.37;2.27;;;25.80;43.60;;;;;;6253398;28;20270;-79
2023/07/13 13:54:04;;;;;;;4.47;2.40;;;26.00;44.40;;;;;;6258915;28;20236;-75
2023/07/13 13:57:08;;;;;;;4.23;2.70;;;26.20;43.10;;;;;;6260184;28;20338;-74
2023/07/13 14:00:14;;;;;;;5.30;2.70;;;26.10;43.90;;;;;;6251379;28;20811;-75
2023/07/13 14:03:21;;;;;;;2.83;2.73;;;26.40;43.70;;;;;;6257842;28;20616;-75
2023/07/13 14:06:24;;;;;;;2.60;2.50;;;26.40;42.90;;;;;;6262942;28;20889;-75
2023/07/13 14:09:28;;;;;;;2.50;2.40;;;26.30;43.20;;;;;;6248515;28;20234;-75
2023/07/13 14:12:31;;;;;;;4.03;2.57;;;26.20;43.00;;;;;;6246970;28;20324;-77
2023/07/13 14:15:35;;;;;;;2.67;2.47;;;26.00;42.80;;;;;;6258343;28;20241;-77
2023/07/13 14:18:39;;;;;;;2.40;1.90;;;26.10;43.50;;;;;;6252649;28;20245;-77
2023/07/13 14:21:42;;;;;;;2.63;2.40;;;26.10;43.20;;;;;;6259637;28;20833;-79
2023/07/13 14:24:45;;;;;;;5.60;2.20;;;26.10;42.90;;;;;;6265182;28;20248;-76
2023/07/13 14:27:55;;;;;;;10.20;2.60;;;26.00;42.90;;;;;;6273470;28;20332;-75
2023/07/13 14:30:58;;;;;;;2.40;2.20;;;25.80;44.00;;;;;;6262324;28;20234;-78
2023/07/13 14:34:03;;;;;;;2.57;2.37;;;25.90;44.00;;;;;;6238146;28;20238;-77
2023/07/13 14:37:06;;;;;;;2.50;2.30;;;25.80;44.20;;;;;;6248576;28;20241;-77
2023/07/13 14:40:14;;;;;;;2.40;2.23;;;25.90;44.10;;;;;;6269153;28;20225;-77
2023/07/13 14:43:18;;;;;;;2.33;2.23;;;25.90;44.30;;;;;;6251103;28;20358;-75
2023/07/13 14:46:28;;;;;;;3.80;2.43;;;26.00;43.50;;;;;;6272525;28;20230;-77
2023/07/13 14:49:36;;;;;;;4.10;2.63;;;26.00;44.30;;;;;;6264896;28;20235;-75
2023/07/13 14:52:40;;;;;;;2.47;2.47;;;25.80;44.20;;;;;;6253300;28;20243;-75
2023/07/13 14:55:43;;;;;;;2.53;2.27;;;25.80;43.50;;;;;;6272604;28;20736;-78
2023/07/13 14:58:46;;;;;;;2.60;2.50;;;25.70;43.70;;;;;;6255686;28;20306;-76
2023/07/13 15:01:51;;;;;;;2.10;2.00;;;25.70;44.20;;;;;;6263318;28;20237;-75
2023/07/13 15:04:58;;;;;;;2.97;2.60;;;26.00;43.70;;;;;;6265899;28;20229;-76
2023/07/13 15:08:02;;;;;;;2.50;2.40;;;26.00;43.70;;;;;;6252094;28;20245;-75
2023/07/13 15:11:05;;;;;;;2.40;1.93;;;26.20;43.40;;;;;;6273433;28;20230;-76
2023/07/13 15:14:08;;;;;;;2.07;2.00;;;26.00;43.30;;;;;;6261350;28;20230;-77
2023/07/13 15:17:29;;;;;;;2.40;2.30;;;25.80;43.50;;;;;;6255090;28;20292;-74
2023/07/13 15:20:35;;;;;;;2.60;2.40;;;25.80;43.30;;;;;;6253117;28;20246;-77
2023/07/13 15:23:39;;;;;;;1.93;1.83;;;25.80;43.30;;;;;;6252847;28;20243;-80
2023/07/13 15:26:45;;;;;;;2.23;2.10;;;25.90;42.50;;;;;;6265242;28;20236;-80
2023/07/13 15:29:51;;;;;;;1.90;1.90;;;25.80;41.90;;;;;;6255995;28;20315;-81
2023/07/13 15:32:54;;;;;;;2.00;1.80;;;25.70;42.00;;;;;;6262601;28;20238;-79
2023/07/13 15:35:59;;;;;;;2.07;2.00;;;25.90;42.30;;;;;;6254991;28;20317;-80
2023/07/13 15:39:02;;;;;;;2.17;1.97;;;25.80;42.00;;;;;;6271163;28;20230;-76
2023/07/13 15:42:06;;;;;;;2.20;2.00;;;25.70;42.70;;;;;;6252602;28;20320;-79
2023/07/13 15:45:17;;;;;;;5.23;2.10;;;25.70;43.20;;;;;;6255967;28;20321;-79
2023/07/13 15:48:23;;;;;;;2.30;2.10;;;25.60;43.40;;;;;;6253077;28;20230;-77
2023/07/13 15:51:29;;;;;;;1.77;1.73;;;25.50;43.20;;;;;;6251041;28;20326;-76
2023/07/13 15:54:33;;;;;;;4.43;2.30;;;25.40;43.20;;;;;;6274660;28;20244;-80
2023/07/13 15:57:36;;;;;;;4.00;2.07;;;25.20;43.40;;;;;;6260333;28;20234;-79
2023/07/13 16:00:41;;;;;;;3.47;2.20;;;25.10;43.80;;;;;;6272559;28;20240;-83
2023/07/13 16:03:45;;;;;;;2.40;1.90;;;25.20;44.00;;;;;;6257595;28;20242;-80
2023/07/13 16:06:50;;;;;;;3.17;2.40;;;24.80;44.20;;;;;;6262808;28;20303;-79